Terminal Aerodrome Forecast
Issued by NWS Newport/Morehead City, NC

Home | Current Version | Previous Version | Text Only | Print | Product List | Glossary Off
Versions: 1 2 3 4 5 6 7 8 9 10 11 12 13 14 15 16 17

000
FTUS42 KMHX 231213 AAA
TAFEWN
TAF AMD
KEWN 231213Z 2312/2412 00000KT 3/4SM BR OVC004
      TEMPO 2312/2313 1/4SM FG OVC002
     FM231300 05004KT 4SM BR SCT005
     FM231430 04006KT P6SM FEW250
     FM232300 VRB04KT P6SM SCT250=

USA.gov is the U.S. government's official web portal to all federal, state and local government web resources and services.